sensor_id;sensor_type;location;lat;lon;timestamp;pressure;altitude;pressure_sealevel;temperature;humidity
79411;BME280;69635;50.964;6.948;2023-06-14T00:01:20;100769.19;;;19.69;41.23
79411;BME280;69635;50.964;6.948;2023-06-14T00:03:47;100771.22;;;19.63;41.96
79411;BME280;69635;50.964;6.948;2023-06-14T00:06:14;100777.16;;;19.71;41.51
79411;BME280;69635;50.964;6.948;2023-06-14T00:08:39;100771.72;;;19.72;42.11
79411;BME280;69635;50.964;6.948;2023-06-14T00:11:06;100766.09;;;19.57;42.02
79411;BME280;69635;50.964;6.948;2023-06-14T00:13:32;100774.19;;;19.55;42.14
79411;BME280;69635;50.964;6.948;2023-06-14T00:15:57;100775.09;;;19.56;41.89
79411;BME280;69635;50.964;6.948;2023-06-14T00:18:23;100777.78;;;19.56;41.71
79411;BME280;69635;50.964;6.948;2023-06-14T00:20:55;100772.22;;;19.60;41.14
79411;BME280;69635;50.964;6.948;2023-06-14T00:23:21;100778.69;;;19.55;41.45
79411;BME280;69635;50.964;6.948;2023-06-14T00:25:46;100783.41;;;19.48;41.64
79411;BME280;69635;50.964;6.948;2023-06-14T00:28:12;100785.41;;;19.43;42.07
79411;BME280;69635;50.964;6.948;2023-06-14T00:30:38;100784.31;;;19.47;41.75
79411;BME280;69635;50.964;6.948;2023-06-14T00:33:03;100795.38;;;19.40;41.89
79411;BME280;69635;50.964;6.948;2023-06-14T00:35:29;100791.88;;;19.38;42.15
79411;BME280;69635;50.964;6.948;2023-06-14T00:37:54;100796.53;;;19.33;42.72
79411;BME280;69635;50.964;6.948;2023-06-14T00:40:20;100796.53;;;19.33;42.42
79411;BME280;69635;50.964;6.948;2023-06-14T00:42:47;100795.81;;;19.26;42.02
79411;BME280;69635;50.964;6.948;2023-06-14T00:45:12;100796.00;;;19.22;42.23
79411;BME280;69635;50.964;6.948;2023-06-14T00:47:38;100795.72;;;19.04;42.58
79411;BME280;69635;50.964;6.948;2023-06-14T00:50:07;100794.13;;;18.99;42.87
79411;BME280;69635;50.964;6.948;2023-06-14T00:52:33;100802.00;;;19.03;43.26
79411;BME280;69635;50.964;6.948;2023-06-14T00:55:00;100799.31;;;18.79;44.02
79411;BME280;69635;50.964;6.948;2023-06-14T00:57:26;100808.03;;;18.59;44.76
79411;BME280;69635;50.964;6.948;2023-06-14T00:59:52;100809.19;;;18.51;45.31
79411;BME280;69635;50.964;6.948;2023-06-14T01:02:18;100816.38;;;18.50;45.61
79411;BME280;69635;50.964;6.948;2023-06-14T01:04:46;100820.22;;;18.40;45.86
79411;BME280;69635;50.964;6.948;2023-06-14T01:12:52;100824.84;;;18.35;46.55
79411;BME280;69635;50.964;6.948;2023-06-14T01:15:23;100821.84;;;18.18;46.80
79411;BME280;69635;50.964;6.948;2023-06-14T01:17:49;100827.38;;;18.12;47.01
79411;BME280;69635;50.964;6.948;2023-06-14T01:20:17;100830.28;;;18.04;47.36
79411;BME280;69635;50.964;6.948;2023-06-14T01:23:00;100828.22;;;18.14;46.92
79411;BME280;69635;50.964;6.948;2023-06-14T01:25:26;100822.31;;;18.03;46.70
79411;BME280;69635;50.964;6.948;2023-06-14T01:28:03;100826.25;;;17.91;46.99
79411;BME280;69635;50.964;6.948;2023-06-14T01:30:30;100826.25;;;17.91;46.82
79411;BME280;69635;50.964;6.948;2023-06-14T01:32:58;100823.06;;;17.77;47.21
79411;BME280;69635;50.964;6.948;2023-06-14T01:35:24;100827.00;;;17.66;47.27
79411;BME280;69635;50.964;6.948;2023-06-14T01:37:51;100823.59;;;17.61;47.25
79411;BME280;69635;50.964;6.948;2023-06-14T01:40:18;100823.63;;;17.88;47.12
79411;BME280;69635;50.964;6.948;2023-06-14T01:42:49;100820.69;;;17.68;47.39
79411;BME280;69635;50.964;6.948;2023-06-14T01:45:15;100821.81;;;17.60;47.58
79411;BME280;69635;50.964;6.948;2023-06-14T01:47:42;100831.03;;;17.80;47.27
79411;BME280;69635;50.964;6.948;2023-06-14T01:50:09;100827.53;;;18.08;47.01
79411;BME280;69635;50.964;6.948;2023-06-14T01:52:34;100829.78;;;17.92;47.86
79411;BME280;69635;50.964;6.948;2023-06-14T01:55:00;100830.34;;;18.03;47.73
79411;BME280;69635;50.964;6.948;2023-06-14T01:57:28;100832.41;;;17.93;48.31
79411;BME280;69635;50.964;6.948;2023-06-14T01:59:53;100817.72;;;17.77;48.21
79411;BME280;69635;50.964;6.948;2023-06-14T02:02:19;100826.06;;;17.68;48.74
79411;BME280;69635;50.964;6.948;2023-06-14T02:04:44;100822.59;;;17.63;48.98
79411;BME280;69635;50.964;6.948;2023-06-14T02:07:12;100822.53;;;17.66;49.04
79411;BME280;69635;50.964;6.948;2023-06-14T02:09:38;100826.59;;;17.79;48.83
79411;BME280;69635;50.964;6.948;2023-06-14T02:12:03;100824.28;;;17.67;49.15
79411;BME280;69635;50.964;6.948;2023-06-14T02:14:32;100824.50;;;17.60;48.57
79411;BME280;69635;50.964;6.948;2023-06-14T02:16:58;100824.94;;;17.75;48.74
79411;BME280;69635;50.964;6.948;2023-06-14T02:19:26;100830.31;;;17.75;48.60
79411;BME280;69635;50.964;6.948;2023-06-14T02:21:51;100831.00;;;17.82;48.56
79411;BME280;69635;50.964;6.948;2023-06-14T02:24:17;100834.56;;;17.81;48.59
79411;BME280;69635;50.964;6.948;2023-06-14T02:26:42;100833.50;;;17.86;48.01
79411;BME280;69635;50.964;6.948;2023-06-14T02:29:08;100827.63;;;17.75;46.78
79411;BME280;69635;50.964;6.948;2023-06-14T02:31:40;100832.72;;;17.83;46.92
79411;BME280;69635;50.964;6.948;2023-06-14T02:34:05;100836.97;;;17.90;46.24
79411;BME280;69635;50.964;6.948;2023-06-14T02:36:34;100839.47;;;17.96;46.21
79411;BME280;69635;50.964;6.948;2023-06-14T02:39:00;100836.19;;;17.86;45.76
79411;BME280;69635;50.964;6.948;2023-06-14T02:41:26;100839.84;;;17.84;45.62
79411;BME280;69635;50.964;6.948;2023-06-14T02:43:52;100841.22;;;17.68;46.44
79411;BME280;69635;50.964;6.948;2023-06-14T02:46:18;100834.03;;;17.70;46.15
79411;BME280;69635;50.964;6.948;2023-06-14T02:48:46;100844.38;;;17.82;45.68
79411;BME280;69635;50.964;6.948;2023-06-14T02:51:12;100840.75;;;17.84;45.88
79411;BME280;69635;50.964;6.948;2023-06-14T02:53:37;100845.88;;;17.90;45.32
79411;BME280;69635;50.964;6.948;2023-06-14T02:56:05;100842.72;;;18.07;44.90
79411;BME280;69635;50.964;6.948;2023-06-14T02:58:31;100854.97;;;17.85;46.04
79411;BME280;69635;50.964;6.948;2023-06-14T03:00:56;100845.06;;;17.88;45.73
79411;BME280;69635;50.964;6.948;2023-06-14T03:03:22;100853.13;;;17.87;45.98
79411;BME280;69635;50.964;6.948;2023-06-14T03:05:50;100856.81;;;17.83;45.71
79411;BME280;69635;50.964;6.948;2023-06-14T03:08:16;100857.66;;;17.85;45.95
79411;BME280;69635;50.964;6.948;2023-06-14T03:10:48;100851.13;;;17.93;44.96
79411;BME280;69635;50.964;6.948;2023-06-14T03:13:15;100853.75;;;17.96;44.76
79411;BME280;69635;50.964;6.948;2023-06-14T03:15:44;100861.69;;;17.99;44.80
79411;BME280;69635;50.964;6.948;2023-06-14T03:18:10;100866.97;;;18.01;44.61
79411;BME280;69635;50.964;6.948;2023-06-14T03:20:37;100859.88;;;18.00;44.20
79411;BME280;69635;50.964;6.948;2023-06-14T03:23:03;100871.53;;;17.97;43.97
79411;BME280;69635;50.964;6.948;2023-06-14T03:25:28;100872.25;;;18.04;44.03
79411;BME280;69635;50.964;6.948;2023-06-14T03:27:57;100863.75;;;17.90;44.45
79411;BME280;69635;50.964;6.948;2023-06-14T03:30:23;100873.63;;;17.88;44.47
79411;BME280;69635;50.964;6.948;2023-06-14T03:32:49;100870.97;;;17.88;44.53
79411;BME280;69635;50.964;6.948;2023-06-14T03:35:17;100870.97;;;17.86;45.10
79411;BME280;69635;50.964;6.948;2023-06-14T03:37:46;100871.38;;;17.73;44.93
79411;BME280;69635;50.964;6.948;2023-06-14T03:40:13;100870.47;;;17.74;44.79
79411;BME280;69635;50.964;6.948;2023-06-14T03:42:39;100876.59;;;17.77;44.72
79411;BME280;69635;50.964;6.948;2023-06-14T03:45:06;100877.63;;;17.73;45.10
79411;BME280;69635;50.964;6.948;2023-06-14T03:47:32;100882.53;;;17.88;44.75
79411;BME280;69635;50.964;6.948;2023-06-14T03:49:57;100880.78;;;17.87;45.11
79411;BME280;69635;50.964;6.948;2023-06-14T03:52:23;100885.81;;;17.98;43.81
79411;BME280;69635;50.964;6.948;2023-06-14T03:54:48;100886.00;;;17.92;44.62
79411;BME280;69635;50.964;6.948;2023-06-14T03:57:14;100889.44;;;17.95;44.87
79411;BME280;69635;50.964;6.948;2023-06-14T03:59:40;100891.38;;;17.90;45.34
79411;BME280;69635;50.964;6.948;2023-06-14T04:02:06;100899.31;;;17.95;44.35
79411;BME280;69635;50.964;6.948;2023-06-14T04:04:32;100892.31;;;17.89;44.78
79411;BME280;69635;50.964;6.948;2023-06-14T04:06:57;100897.53;;;17.94;44.20
79411;BME280;69635;50.964;6.948;2023-06-14T04:09:25;100894.06;;;17.90;44.30
79411;BME280;69635;50.964;6.948;2023-06-14T04:11:54;100895.84;;;17.90;44.25
79411;BME280;69635;50.964;6.948;2023-06-14T04:14:20;100900.34;;;17.89;44.73
79411;BME280;69635;50.964;6.948;2023-06-14T04:16:47;100908.44;;;17.88;44.54
79411;BME280;69635;50.964;6.948;2023-06-14T04:19:12;100910.19;;;17.89;44.43
79411;BME280;69635;50.964;6.948;2023-06-14T04:21:38;100921.66;;;17.92;44.20
79411;BME280;69635;50.964;6.948;2023-06-14T04:24:04;100925.13;;;17.96;44.33
79411;BME280;69635;50.964;6.948;2023-06-14T04:26:29;100915.47;;;17.90;44.23
79411;BME280;69635;50.964;6.948;2023-06-14T04:28:59;100916.31;;;17.92;44.62
79411;BME280;69635;50.964;6.948;2023-06-14T04:31:28;100912.69;;;17.93;44.30
79411;BME280;69635;50.964;6.948;2023-06-14T04:33:55;100920.50;;;18.01;44.60
79411;BME280;69635;50.964;6.948;2023-06-14T04:36:21;100915.69;;;18.14;43.89
79411;BME280;69635;50.964;6.948;2023-06-14T04:38:46;100922.03;;;18.11;44.13
79411;BME280;69635;50.964;6.948;2023-06-14T04:41:12;100927.59;;;18.03;43.95
79411;BME280;69635;50.964;6.948;2023-06-14T04:43:38;100933.06;;;18.00;44.21
79411;BME280;69635;50.964;6.948;2023-06-14T04:46:05;100928.34;;;18.09;44.85
79411;BME280;69635;50.964;6.948;2023-06-14T04:48:34;100938.94;;;18.12;44.75
79411;BME280;69635;50.964;6.948;2023-06-14T04:51:00;100929.97;;;18.14;44.20
79411;BME280;69635;50.964;6.948;2023-06-14T04:53:25;100949.34;;;18.22;44.11
79411;BME280;69635;50.964;6.948;2023-06-14T04:55:54;100941.13;;;18.28;43.96
79411;BME280;69635;50.964;6.948;2023-06-14T04:58:20;100943.69;;;18.33;44.16
79411;BME280;69635;50.964;6.948;2023-06-14T05:00:47;100946.44;;;18.30;43.92
79411;BME280;69635;50.964;6.948;2023-06-14T05:03:12;100943.69;;;18.33;43.72
79411;BME280;69635;50.964;6.948;2023-06-14T05:05:41;100950.75;;;18.35;43.95
79411;BME280;69635;50.964;6.948;2023-06-14T05:08:07;100948.91;;;18.37;43.64
79411;BME280;69635;50.964;6.948;2023-06-14T05:10:33;100956.50;;;18.52;43.56
79411;BME280;69635;50.964;6.948;2023-06-14T05:13:00;100969.84;;;18.54;44.04
79411;BME280;69635;50.964;6.948;2023-06-14T05:15:26;100955.63;;;18.52;43.84
79411;BME280;69635;50.964;6.948;2023-06-14T05:17:52;100948.53;;;18.49;43.97
79411;BME280;69635;50.964;6.948;2023-06-14T05:20:24;100965.13;;;18.62;43.27
79411;BME280;69635;50.964;6.948;2023-06-14T05:22:52;100941.34;;;18.51;43.68
79411;BME280;69635;50.964;6.948;2023-06-14T05:25:19;100970.19;;;18.71;43.81
79411;BME280;69635;50.964;6.948;2023-06-14T05:27:45;100961.16;;;18.75;43.70
79411;BME280;69635;50.964;6.948;2023-06-14T05:30:11;100955.78;;;18.75;43.79
79411;BME280;69635;50.964;6.948;2023-06-14T05:32:36;100969.50;;;19.20;42.00
79411;BME280;69635;50.964;6.948;2023-06-14T05:35:02;100962.44;;;20.19;40.46
79411;BME280;69635;50.964;6.948;2023-06-14T05:37:27;100961.78;;;20.58;39.02
79411;BME280;69635;50.964;6.948;2023-06-14T05:39:53;100961.50;;;21.10;37.68
79411;BME280;69635;50.964;6.948;2023-06-14T05:42:18;100957.06;;;21.71;36.36
79411;BME280;69635;50.964;6.948;2023-06-14T05:44:43;100969.56;;;21.10;36.79
79411;BME280;69635;50.964;6.948;2023-06-14T05:47:09;100974.31;;;21.26;36.93
79411;BME280;69635;50.964;6.948;2023-06-14T05:49:34;100982.97;;;22.34;34.92
79411;BME280;69635;50.964;6.948;2023-06-14T05:52:00;100978.56;;;22.13;35.59
79411;BME280;69635;50.964;6.948;2023-06-14T05:54:25;100982.47;;;22.45;34.95
79411;BME280;69635;50.964;6.948;2023-06-14T05:56:51;100989.84;;;22.61;34.27
79411;BME280;69635;50.964;6.948;2023-06-14T05:59:16;100991.16;;;22.51;34.84
79411;BME280;69635;50.964;6.948;2023-06-14T06:01:42;100987.28;;;22.38;34.82
79411;BME280;69635;50.964;6.948;2023-06-14T06:04:07;100995.88;;;22.46;34.77
79411;BME280;69635;50.964;6.948;2023-06-14T06:06:32;100997.16;;;23.13;33.56
79411;BME280;69635;50.964;6.948;2023-06-14T06:08:58;100993.03;;;22.69;34.45
79411;BME280;69635;50.964;6.948;2023-06-14T06:11:23;101004.88;;;23.57;32.99
79411;BME280;69635;50.964;6.948;2023-06-14T06:13:49;100990.56;;;23.19;33.41
79411;BME280;69635;50.964;6.948;2023-06-14T06:16:15;101000.53;;;23.54;32.55
79411;BME280;69635;50.964;6.948;2023-06-14T06:18:40;100997.25;;;23.48;33.14
79411;BME280;69635;50.964;6.948;2023-06-14T06:21:06;101006.63;;;23.92;32.04
79411;BME280;69635;50.964;6.948;2023-06-14T06:23:31;101003.69;;;23.27;33.02
79411;BME280;69635;50.964;6.948;2023-06-14T06:25:57;100996.31;;;23.66;33.10
79411;BME280;69635;50.964;6.948;2023-06-14T06:28:22;100995.84;;;23.03;33.38
79411;BME280;69635;50.964;6.948;2023-06-14T06:30:48;101012.28;;;23.53;32.62
79411;BME280;69635;50.964;6.948;2023-06-14T06:33:13;101008.03;;;23.31;33.46
79411;BME280;69635;50.964;6.948;2023-06-14T06:35:39;101006.97;;;23.69;33.09
79411;BME280;69635;50.964;6.948;2023-06-14T06:38:05;101007.06;;;23.32;33.19
79411;BME280;69635;50.964;6.948;2023-06-14T06:40:31;101009.91;;;23.47;32.82
79411;BME280;69635;50.964;6.948;2023-06-14T06:42:56;101000.00;;;23.99;31.78
79411;BME280;69635;50.964;6.948;2023-06-14T06:45:22;101009.50;;;23.89;31.55
79411;BME280;69635;50.964;6.948;2023-06-14T06:47:48;101013.72;;;23.94;31.73
79411;BME280;69635;50.964;6.948;2023-06-14T06:50:14;101012.16;;;24.07;31.96
79411;BME280;69635;50.964;6.948;2023-06-14T06:52:39;101008.19;;;24.14;31.33
79411;BME280;69635;50.964;6.948;2023-06-14T06:55:05;101024.53;;;24.29;30.82
79411;BME280;69635;50.964;6.948;2023-06-14T06:57:31;101025.50;;;24.60;31.11
79411;BME280;69635;50.964;6.948;2023-06-14T06:59:57;101013.44;;;24.50;30.62
79411;BME280;69635;50.964;6.948;2023-06-14T07:02:24;101019.22;;;25.23;29.88
79411;BME280;69635;50.964;6.948;2023-06-14T07:04:50;101031.19;;;25.19;30.12
79411;BME280;69635;50.964;6.948;2023-06-14T07:07:17;101025.25;;;24.65;31.23
79411;BME280;69635;50.964;6.948;2023-06-14T07:09:44;101015.34;;;24.48;31.24
79411;BME280;69635;50.964;6.948;2023-06-14T07:12:11;101023.59;;;24.12;31.91
79411;BME280;69635;50.964;6.948;2023-06-14T07:14:37;101018.38;;;24.42;31.76
79411;BME280;69635;50.964;6.948;2023-06-14T07:17:02;101016.84;;;24.54;31.15
79411;BME280;69635;50.964;6.948;2023-06-14T07:19:28;101022.47;;;24.66;31.08
79411;BME280;69635;50.964;6.948;2023-06-14T07:21:53;101022.03;;;25.83;29.02
79411;BME280;69635;50.964;6.948;2023-06-14T07:24:19;101022.88;;;25.22;30.37
79411;BME280;69635;50.964;6.948;2023-06-14T07:26:46;101010.41;;;25.20;30.23
79411;BME280;69635;50.964;6.948;2023-06-14T07:29:13;101022.63;;;24.31;31.89
79411;BME280;69635;50.964;6.948;2023-06-14T07:31:39;101027.69;;;25.49;30.16
79411;BME280;69635;50.964;6.948;2023-06-14T07:34:05;101025.94;;;25.48;29.21
79411;BME280;69635;50.964;6.948;2023-06-14T07:36:30;101021.47;;;25.62;29.40
79411;BME280;69635;50.964;6.948;2023-06-14T07:38:56;101028.41;;;25.82;29.36
79411;BME280;69635;50.964;6.948;2023-06-14T07:41:21;101033.81;;;24.90;30.86
79411;BME280;69635;50.964;6.948;2023-06-14T07:43:47;101035.00;;;25.62;28.72
79411;BME280;69635;50.964;6.948;2023-06-14T07:46:12;101015.94;;;25.79;28.58
79411;BME280;69635;50.964;6.948;2023-06-14T07:48:38;101023.81;;;25.53;28.73
79411;BME280;69635;50.964;6.948;2023-06-14T07:51:03;101019.94;;;26.02;28.26
79411;BME280;69635;50.964;6.948;2023-06-14T07:53:29;101016.38;;;26.73;26.97
79411;BME280;69635;50.964;6.948;2023-06-14T07:55:56;101020.38;;;26.68;26.94
79411;BME280;69635;50.964;6.948;2023-06-14T07:58:21;101018.88;;;26.62;26.31
79411;BME280;69635;50.964;6.948;2023-06-14T08:00:47;101031.69;;;26.74;24.47
79411;BME280;69635;50.964;6.948;2023-06-14T08:03:12;101022.69;;;26.74;23.98
79411;BME280;69635;50.964;6.948;2023-06-14T08:05:38;101019.44;;;26.39;24.70
79411;BME280;69635;50.964;6.948;2023-06-14T08:08:03;101020.25;;;26.69;24.64
79411;BME280;69635;50.964;6.948;2023-06-14T08:10:29;101017.91;;;26.49;23.81
79411;BME280;69635;50.964;6.948;2023-06-14T08:12:54;101012.84;;;26.99;23.17
79411;BME280;69635;50.964;6.948;2023-06-14T08:15:23;101017.63;;;26.82;24.70
79411;BME280;69635;50.964;6.948;2023-06-14T08:17:48;101010.94;;;26.01;24.40
79411;BME280;69635;50.964;6.948;2023-06-14T08:20:16;101017.84;;;26.07;24.83
79411;BME280;69635;50.964;6.948;2023-06-14T08:22:42;101004.44;;;26.62;23.32
79411;BME280;69635;50.964;6.948;2023-06-14T08:25:07;101009.97;;;26.74;21.50
79411;BME280;69635;50.964;6.948;2023-06-14T08:27:34;101014.53;;;26.60;22.47
79411;BME280;69635;50.964;6.948;2023-06-14T08:29:59;101022.13;;;27.23;21.19
79411;BME280;69635;50.964;6.948;2023-06-14T08:32:25;101017.25;;;26.88;22.37
79411;BME280;69635;50.964;6.948;2023-06-14T08:34:50;101024.38;;;27.03;21.99
79411;BME280;69635;50.964;6.948;2023-06-14T08:37:16;101023.06;;;26.54;22.66
79411;BME280;69635;50.964;6.948;2023-06-14T08:39:42;101000.88;;;26.61;22.45
79411;BME280;69635;50.964;6.948;2023-06-14T08:42:09;101016.75;;;26.81;22.61
79411;BME280;69635;50.964;6.948;2023-06-14T08:44:35;101018.72;;;26.79;22.56
79411;BME280;69635;50.964;6.948;2023-06-14T08:47:01;101011.88;;;26.30;22.92
79411;BME280;69635;50.964;6.948;2023-06-14T08:49:29;101010.06;;;26.45;22.77
79411;BME280;69635;50.964;6.948;2023-06-14T08:52:00;101017.81;;;26.37;23.23
79411;BME280;69635;50.964;6.948;2023-06-14T08:54:28;101006.47;;;26.30;23.16
79411;BME280;69635;50.964;6.948;2023-06-14T08:56:57;100999.97;;;26.33;23.17
79411;BME280;69635;50.964;6.948;2023-06-14T08:59:25;101013.75;;;26.44;23.74
79411;BME280;69635;50.964;6.948;2023-06-14T09:01:52;101003.25;;;26.94;22.87
79411;BME280;69635;50.964;6.948;2023-06-14T09:04:22;100995.44;;;26.61;22.97
79411;BME280;69635;50.964;6.948;2023-06-14T09:06:49;100998.78;;;26.22;23.30
79411;BME280;69635;50.964;6.948;2023-06-14T09:09:24;101008.09;;;26.04;22.83
79411;BME280;69635;50.964;6.948;2023-06-14T09:11:51;101001.81;;;26.46;22.65
79411;BME280;69635;50.964;6.948;2023-06-14T09:14:18;101010.13;;;26.15;23.37
79411;BME280;69635;50.964;6.948;2023-06-14T09:16:44;100990.59;;;26.52;22.86
79411;BME280;69635;50.964;6.948;2023-06-14T09:19:21;100993.00;;;26.29;23.96
79411;BME280;69635;50.964;6.948;2023-06-14T09:21:48;100992.63;;;26.63;23.33
79411;BME280;69635;50.964;6.948;2023-06-14T09:24:14;101012.44;;;26.21;23.75
79411;BME280;69635;50.964;6.948;2023-06-14T09:26:41;101000.69;;;26.06;23.98
79411;BME280;69635;50.964;6.948;2023-06-14T09:29:07;101000.84;;;26.33;23.76
79411;BME280;69635;50.964;6.948;2023-06-14T09:31:35;101010.31;;;26.26;23.61
79411;BME280;69635;50.964;6.948;2023-06-14T09:34:02;101011.19;;;25.83;24.24
79411;BME280;69635;50.964;6.948;2023-06-14T09:36:28;101012.88;;;26.57;24.38
79411;BME280;69635;50.964;6.948;2023-06-14T09:38:58;100996.63;;;26.71;23.33
79411;BME280;69635;50.964;6.948;2023-06-14T09:41:40;101003.69;;;26.02;24.60
79411;BME280;69635;50.964;6.948;2023-06-14T09:44:08;101007.94;;;26.50;23.52
79411;BME280;69635;50.964;6.948;2023-06-14T09:46:34;101012.00;;;25.99;24.65
79411;BME280;69635;50.964;6.948;2023-06-14T09:49:01;101006.81;;;26.10;24.76
79411;BME280;69635;50.964;6.948;2023-06-14T09:51:28;101017.69;;;25.94;24.89
79411;BME280;69635;50.964;6.948;2023-06-14T09:53:58;101016.16;;;26.34;24.56
79411;BME280;69635;50.964;6.948;2023-06-14T09:56:28;101024.88;;;26.67;23.71
79411;BME280;69635;50.964;6.948;2023-06-14T09:58:57;101004.94;;;26.54;23.24
79411;BME280;69635;50.964;6.948;2023-06-14T10:01:30;101016.78;;;25.35;25.49
79411;BME280;69635;50.964;6.948;2023-06-14T10:04:05;101017.06;;;26.05;25.14
79411;BME280;69635;50.964;6.948;2023-06-14T10:06:32;101012.47;;;26.49;24.21
79411;BME280;69635;50.964;6.948;2023-06-14T10:09:03;101010.31;;;26.26;24.66
79411;BME280;69635;50.964;6.948;2023-06-14T10:11:29;101013.53;;;26.18;24.66
79411;BME280;69635;50.964;6.948;2023-06-14T10:13:55;101007.63;;;25.96;24.84
79411;BME280;69635;50.964;6.948;2023-06-14T10:19:19;101002.56;;;25.90;25.43
79411;BME280;69635;50.964;6.948;2023-06-14T10:24:29;101001.19;;;25.83;25.85
79411;BME280;69635;50.964;6.948;2023-06-14T10:26:57;101001.53;;;26.51;25.99
79411;BME280;69635;50.964;6.948;2023-06-14T10:29:23;101005.09;;;26.65;24.12
79411;BME280;69635;50.964;6.948;2023-06-14T10:31:56;101003.16;;;26.11;25.82
79411;BME280;69635;50.964;6.948;2023-06-14T10:37:12;100999.09;;;26.32;26.21
79411;BME280;69635;50.964;6.948;2023-06-14T10:39:46;100998.06;;;26.35;25.51
79411;BME280;69635;50.964;6.948;2023-06-14T10:42:12;101000.47;;;26.39;24.89
79411;BME280;69635;50.964;6.948;2023-06-14T10:44:51;100991.25;;;26.28;25.88
79411;BME280;69635;50.964;6.948;2023-06-14T10:47:32;100990.97;;;26.18;25.64
79411;BME280;69635;50.964;6.948;2023-06-14T10:52:38;100999.19;;;27.01;25.16
79411;BME280;69635;50.964;6.948;2023-06-14T10:57:37;101005.84;;;27.23;24.08
79411;BME280;69635;50.964;6.948;2023-06-14T11:00:04;101005.00;;;27.09;24.40
79411;BME280;69635;50.964;6.948;2023-06-14T11:02:48;101005.69;;;26.98;23.85
79411;BME280;69635;50.964;6.948;2023-06-14T11:05:23;101008.81;;;26.50;24.66
79411;BME280;69635;50.964;6.948;2023-06-14T11:10:39;100999.88;;;27.04;24.27
79411;BME280;69635;50.964;6.948;2023-06-14T11:13:06;101003.34;;;27.06;24.04
79411;BME280;69635;50.964;6.948;2023-06-14T11:15:33;101004.28;;;27.19;24.20
79411;BME280;69635;50.964;6.948;2023-06-14T11:18:03;101000.41;;;27.23;24.44
79411;BME280;69635;50.964;6.948;2023-06-14T11:20:34;100993.28;;;26.66;25.46
79411;BME280;69635;50.964;6.948;2023-06-14T11:23:01;100988.03;;;26.35;26.17
79411;BME280;69635;50.964;6.948;2023-06-14T11:25:26;100989.59;;;26.81;26.05
79411;BME280;69635;50.964;6.948;2023-06-14T11:27:56;100977.19;;;26.91;25.80
79411;BME280;69635;50.964;6.948;2023-06-14T11:30:22;100999.81;;;26.92;26.41
79411;BME280;69635;50.964;6.948;2023-06-14T11:32:48;100983.22;;;27.23;26.12
79411;BME280;69635;50.964;6.948;2023-06-14T11:35:15;101003.09;;;26.97;26.73
79411;BME280;69635;50.964;6.948;2023-06-14T11:37:41;100992.50;;;27.47;25.97
79411;BME280;69635;50.964;6.948;2023-06-14T11:40:08;100995.97;;;27.08;26.62
79411;BME280;69635;50.964;6.948;2023-06-14T11:42:36;100997.09;;;26.92;26.59
79411;BME280;69635;50.964;6.948;2023-06-14T11:45:02;100990.38;;;26.41;27.32
79411;BME280;69635;50.964;6.948;2023-06-14T11:47:32;100995.03;;;26.53;27.53
79411;BME280;69635;50.964;6.948;2023-06-14T11:49:59;100988.03;;;26.21;28.31
79411;BME280;69635;50.964;6.948;2023-06-14T11:52:25;100980.16;;;25.28;29.51
79411;BME280;69635;50.964;6.948;2023-06-14T11:54:50;100982.28;;;25.38;29.51
79411;BME280;69635;50.964;6.948;2023-06-14T11:57:18;100986.53;;;25.27;29.75
79411;BME280;69635;50.964;6.948;2023-06-14T11:59:44;100982.72;;;25.60;29.00
79411;BME280;69635;50.964;6.948;2023-06-14T12:02:18;100983.22;;;25.96;28.54
79411;BME280;69635;50.964;6.948;2023-06-14T12:04:47;100976.13;;;25.80;28.12
79411;BME280;69635;50.964;6.948;2023-06-14T12:07:17;100972.25;;;26.13;28.27
79411;BME280;69635;50.964;6.948;2023-06-14T12:12:18;100979.63;;;26.40;26.88
79411;BME280;69635;50.964;6.948;2023-06-14T12:14:43;100983.31;;;26.39;26.41
79411;BME280;69635;50.964;6.948;2023-06-14T12:17:09;100979.91;;;26.49;26.44
79411;BME280;69635;50.964;6.948;2023-06-14T12:19:42;100985.44;;;26.19;26.76
79411;BME280;69635;50.964;6.948;2023-06-14T12:22:12;100975.59;;;26.03;27.03
79411;BME280;69635;50.964;6.948;2023-06-14T12:24:37;100971.19;;;26.16;27.32
79411;BME280;69635;50.964;6.948;2023-06-14T12:27:04;100967.13;;;25.79;27.41
79411;BME280;69635;50.964;6.948;2023-06-14T12:29:32;100979.31;;;25.72;27.79
79411;BME280;69635;50.964;6.948;2023-06-14T12:31:57;100981.56;;;25.94;26.67
79411;BME280;69635;50.964;6.948;2023-06-14T12:34:24;100981.00;;;26.33;26.60
79411;BME280;69635;50.964;6.948;2023-06-14T12:36:50;100986.88;;;26.67;25.52
79411;BME280;69635;50.964;6.948;2023-06-14T12:39:16;100981.97;;;26.88;25.75
79411;BME280;69635;50.964;6.948;2023-06-14T12:41:41;100991.00;;;26.02;26.08
79411;BME280;69635;50.964;6.948;2023-06-14T12:44:07;100992.41;;;26.09;25.81
79411;BME280;69635;50.964;6.948;2023-06-14T12:46:34;100994.00;;;26.70;25.67
79411;BME280;69635;50.964;6.948;2023-06-14T12:49:00;100983.69;;;26.61;25.38
79411;BME280;69635;50.964;6.948;2023-06-14T12:51:26;100984.25;;;26.94;25.91
79411;BME280;69635;50.964;6.948;2023-06-14T12:53:51;100981.44;;;27.63;24.92
79411;BME280;69635;50.964;6.948;2023-06-14T12:56:17;100987.47;;;27.00;25.69
79411;BME280;69635;50.964;6.948;2023-06-14T12:58:43;100988.13;;;26.62;26.33
79411;BME280;69635;50.964;6.948;2023-06-14T13:01:09;100988.59;;;27.10;25.83
79411;BME280;69635;50.964;6.948;2023-06-14T13:03:34;100987.13;;;27.46;25.59
79411;BME280;69635;50.964;6.948;2023-06-14T13:06:00;100981.97;;;26.60;26.82
79411;BME280;69635;50.964;6.948;2023-06-14T13:08:27;100976.81;;;26.27;27.35
79411;BME280;69635;50.964;6.948;2023-06-14T13:10:53;100978.94;;;25.92;28.08
79411;BME280;69635;50.964;6.948;2023-06-14T13:13:19;100977.41;;;26.18;28.16